Time;durP1;ratioP1;P1;durP2;ratioP2;P2;SDS_P1;SDS_P2;PMS_P1;PMS_P2;Temp;Humidity;BMP_temperature;BMP_pressure;BME280_temperature;BME280_humidity;BME280_pressure;Samples;Min_cycle;Max_cycle;Signal;HPM_P1;HPM_P2
2022/01/12 00:01:12;;;;;;;16.30;8.37;;;-1.20;99.90;;;;;;5181902;27;20191;-67
2022/01/12 00:03:39;;;;;;;17.07;8.77;;;-1.20;99.90;;;;;;5181935;27;20147;-67
2022/01/12 00:06:07;;;;;;;18.30;9.30;;;-1.20;99.90;;;;;;5181600;27;20170;-67
2022/01/12 00:08:34;;;;;;;15.40;8.33;;;-1.20;99.90;;;;;;5181515;27;20145;-67
2022/01/12 00:11:03;;;;;;;16.40;8.80;;;-1.20;99.90;;;;;;5181530;27;20163;-67
2022/01/12 00:13:32;;;;;;;17.10;8.43;;;-1.10;99.90;;;;;;5181226;27;20583;-67
2022/01/12 00:16:01;;;;;;;17.70;9.37;;;-1.10;99.90;;;;;;5182916;27;20174;-67
2022/01/12 00:18:30;;;;;;;18.07;9.17;;;-1.00;99.90;;;;;;5201153;27;20127;-67
2022/01/12 00:20:57;;;;;;;18.23;8.50;;;-1.00;99.90;;;;;;5182481;27;20158;-67
2022/01/12 00:23:24;;;;;;;15.77;8.47;;;-1.00;99.90;;;;;;5202182;27;20144;-67
2022/01/12 00:34:00;;;;;;;18.50;8.67;;;-1.00;99.90;;;;;;5182330;27;20214;-67
2022/01/12 00:36:29;;;;;;;16.77;8.67;;;-1.00;99.90;;;;;;5165252;27;20174;-67
2022/01/12 00:38:57;;;;;;;16.43;8.43;;;-1.00;99.90;;;;;;5182515;27;20177;-67
2022/01/12 00:41:24;;;;;;;18.57;8.70;;;-0.90;99.90;;;;;;5181191;27;20155;-67
2022/01/12 00:43:57;;;;;;;17.43;8.77;;;-0.90;99.90;;;;;;5181737;27;20147;-67
2022/01/12 00:46:30;;;;;;;20.50;8.87;;;-0.90;99.90;;;;;;5182873;27;20159;-67
2022/01/12 00:48:58;;;;;;;16.87;8.90;;;-0.90;99.90;;;;;;5181831;27;20490;-67
2022/01/12 00:51:27;;;;;;;17.33;9.00;;;-0.90;99.90;;;;;;5182032;27;20149;-67
2022/01/12 00:53:55;;;;;;;19.30;9.00;;;-0.90;99.90;;;;;;5182336;27;20149;-68
2022/01/12 00:56:23;;;;;;;14.53;7.77;;;-1.00;99.90;;;;;;5200860;27;20166;-67
2022/01/12 00:58:50;;;;;;;16.53;8.50;;;-1.10;99.90;;;;;;5181755;27;20182;-67
2022/01/12 01:01:20;;;;;;;17.57;7.93;;;-1.10;99.90;;;;;;5181279;27;20158;-67
2022/01/12 01:03:49;;;;;;;16.97;7.83;;;-1.10;99.90;;;;;;5182771;27;20162;-67
2022/01/12 01:06:17;;;;;;;14.23;7.33;;;-1.10;99.90;;;;;;5181587;27;20151;-67
2022/01/12 01:08:48;;;;;;;14.73;7.30;;;-1.00;99.90;;;;;;5181545;27;20150;-67
2022/01/12 01:11:15;;;;;;;17.07;7.83;;;-1.00;99.90;;;;;;5200737;27;20134;-67
2022/01/12 01:14:13;;;;;;;14.07;7.67;;;-1.00;99.90;;;;;;5181238;27;20431;-67
2022/01/12 01:27:27;;;;;;;14.83;7.50;;;-1.00;99.90;;;;;;5180857;27;20171;-67
2022/01/12 01:29:54;;;;;;;12.77;7.07;;;-1.00;99.90;;;;;;5181117;27;20148;-67
2022/01/12 01:32:23;;;;;;;12.23;6.47;;;-1.00;99.90;;;;;;5200839;27;20117;-67
2022/01/12 01:34:51;;;;;;;13.07;6.97;;;-1.00;99.90;;;;;;5200856;27;20118;-67
2022/01/12 01:37:18;;;;;;;14.07;7.10;;;-1.00;99.90;;;;;;5181726;27;20486;-67
2022/01/12 01:39:46;;;;;;;11.87;6.07;;;-1.00;99.90;;;;;;5200358;27;20490;-67
2022/01/12 01:42:27;;;;;;;12.97;7.13;;;-0.90;99.90;;;;;;5181957;27;20145;-67
2022/01/12 01:55:41;;;;;;;13.47;6.60;;;-1.00;99.90;;;;;;5180869;27;20148;-67
2022/01/12 01:58:09;;;;;;;11.67;6.27;;;-1.00;99.90;;;;;;5181656;27;20174;-67
2022/01/12 02:00:37;;;;;;;14.07;6.13;;;-1.00;99.90;;;;;;5181022;27;20157;-67
2022/01/12 02:03:04;;;;;;;12.43;6.33;;;-1.00;99.90;;;;;;5181662;27;20532;-67
2022/01/12 02:05:32;;;;;;;12.27;6.13;;;-1.00;99.90;;;;;;5181618;27;20186;-67
2022/01/12 02:08:00;;;;;;;11.50;6.57;;;-0.90;99.90;;;;;;5180858;27;20151;-67
2022/01/12 02:10:27;;;;;;;11.40;5.73;;;-1.00;99.90;;;;;;5182141;27;20353;-67
2022/01/12 02:12:54;;;;;;;13.67;6.63;;;-0.90;99.90;;;;;;5199868;27;20322;-67
2022/01/12 02:15:26;;;;;;;11.97;6.40;;;-0.90;99.90;;;;;;5200758;27;20123;-67
2022/01/12 02:35:12;;;;;;;13.10;6.50;;;-0.80;99.90;;;;;;5181349;27;20158;-67
2022/01/12 02:39:45;;;;;;;13.13;6.07;;;-0.90;99.90;;;;;;5116480;28;20156;-67
2022/01/12 02:40:09;;;;;;;10.93;5.97;;;-0.90;99.90;;;;;;5116488;28;20156;-67
2022/01/12 02:42:41;;;;;;;11.97;6.27;;;-1.00;99.90;;;;;;5115038;28;20145;-68
2022/01/12 02:50:47;;;;;;;15.53;6.57;;;-1.00;99.90;;;;;;5097068;28;20213;-67
2022/01/12 02:56:00;;;;;;;14.33;7.00;;;-0.90;99.90;;;;;;5079181;28;20138;-67
2022/01/12 02:58:27;;;;;;;14.87;7.03;;;-1.00;99.90;;;;;;5095884;28;20221;-67
2022/01/12 03:03:36;;;;;;;13.97;6.97;;;-1.00;99.90;;;;;;5095920;28;20144;-67
2022/01/12 03:06:06;;;;;;;16.37;7.67;;;-1.00;99.90;;;;;;5131064;27;20170;-67
2022/01/12 03:08:37;;;;;;;14.00;7.30;;;-1.00;99.90;;;;;;5162869;27;20191;-67
2022/01/12 03:11:09;;;;;;;15.63;7.23;;;-1.00;99.90;;;;;;5161850;27;20140;-67
2022/01/12 03:13:38;;;;;;;14.10;7.33;;;-1.00;99.90;;;;;;5162036;27;20152;-67
2022/01/12 03:16:18;;;;;;;15.30;7.47;;;-1.00;99.90;;;;;;5163360;27;20158;-67
2022/01/12 03:18:48;;;;;;;13.60;7.43;;;-0.90;99.90;;;;;;5163148;27;20201;-67
2022/01/12 03:21:18;;;;;;;15.33;7.60;;;-0.90;99.90;;;;;;5161756;27;20143;-67
2022/01/12 03:23:45;;;;;;;17.57;8.30;;;-0.90;99.90;;;;;;5163220;27;20147;-67
2022/01/12 03:26:12;;;;;;;16.87;8.20;;;-0.90;99.90;;;;;;5161428;27;20159;-67
2022/01/12 03:28:42;;;;;;;16.40;8.20;;;-0.90;99.90;;;;;;5160945;27;20150;-67
2022/01/12 03:31:23;;;;;;;17.80;8.67;;;-0.90;99.90;;;;;;5178416;27;20143;-67
2022/01/12 03:34:06;;;;;;;17.33;8.27;;;-0.90;99.90;;;;;;5182213;27;20115;-67
2022/01/12 03:36:54;;;;;;;18.87;8.67;;;-1.00;99.90;;;;;;5179808;27;20146;-67
2022/01/12 03:39:39;;;;;;;19.77;8.77;;;-0.90;99.90;;;;;;5161973;27;20147;-67
2022/01/12 03:42:23;;;;;;;16.00;8.33;;;-0.90;99.90;;;;;;5160706;27;20173;-67
2022/01/12 03:45:08;;;;;;;17.57;8.37;;;-1.00;99.90;;;;;;5161013;27;20146;-67
2022/01/12 03:47:53;;;;;;;17.87;8.60;;;-1.10;99.90;;;;;;5182105;27;20186;-68
2022/01/12 03:50:38;;;;;;;20.30;9.30;;;-1.10;99.90;;;;;;5181501;27;20195;-67
2022/01/12 03:53:23;;;;;;;17.83;8.73;;;-1.00;99.90;;;;;;5201220;27;20120;-67
2022/01/12 03:56:08;;;;;;;19.33;9.47;;;-1.10;99.90;;;;;;5181837;27;20173;-67
2022/01/12 03:58:52;;;;;;;19.07;9.30;;;-1.10;99.90;;;;;;5181799;27;20388;-67
2022/01/12 04:01:37;;;;;;;18.57;9.03;;;-1.10;99.90;;;;;;5183536;27;20202;-67
2022/01/12 04:04:30;;;;;;;20.30;9.80;;;-1.10;99.90;;;;;;5183459;27;20150;-67
2022/01/12 04:10:01;;;;;;;16.57;9.40;;;-1.10;99.90;;;;;;5203116;27;20150;-67
2022/01/12 04:12:29;;;;;;;23.20;10.40;;;-1.10;99.90;;;;;;5200877;27;20116;-67
2022/01/12 04:14:56;;;;;;;19.37;9.13;;;-1.20;99.90;;;;;;5201808;27;20120;-67
2022/01/12 04:17:23;;;;;;;19.27;9.70;;;-1.20;99.90;;;;;;5201419;27;20105;-67
2022/01/12 04:19:50;;;;;;;19.73;9.60;;;-1.30;99.90;;;;;;5200835;27;20174;-67
2022/01/12 04:25:03;;;;;;;20.17;9.77;;;-1.40;99.90;;;;;;5200982;27;20112;-67
2022/01/12 04:27:31;;;;;;;20.50;9.90;;;-1.40;99.90;;;;;;5181295;27;20155;-67
2022/01/12 04:29:58;;;;;;;23.13;10.27;;;-1.40;99.90;;;;;;5182021;27;20174;-67
2022/01/12 04:32:26;;;;;;;21.33;9.80;;;-1.40;99.90;;;;;;5202764;27;20144;-67
2022/01/12 04:34:53;;;;;;;21.77;10.60;;;-1.40;99.90;;;;;;5199163;27;20143;-67
2022/01/12 04:37:20;;;;;;;20.47;9.93;;;-1.30;99.90;;;;;;5182629;27;20135;-67
2022/01/12 04:39:48;;;;;;;21.63;10.70;;;-1.30;99.90;;;;;;5182943;27;20170;-67
2022/01/12 04:42:14;;;;;;;32.67;13.80;;;-1.30;99.90;;;;;;5182530;27;20155;-67
2022/01/12 04:44:45;;;;;;;38.47;16.33;;;-1.30;99.90;;;;;;5183715;27;20147;-67
2022/01/12 04:47:29;;;;;;;41.27;17.43;;;-1.40;99.90;;;;;;5181185;27;20218;-67
2022/01/12 04:49:57;;;;;;;36.53;16.30;;;-1.60;99.90;;;;;;5200643;27;20144;-67
2022/01/12 04:52:24;;;;;;;39.43;17.23;;;-1.70;99.90;;;;;;5181189;27;20143;-67
2022/01/12 04:54:51;;;;;;;41.83;16.80;;;-1.60;99.90;;;;;;5181479;27;20191;-67
2022/01/12 04:57:18;;;;;;;38.33;17.07;;;-1.70;99.90;;;;;;5181889;27;20179;-67
2022/01/12 05:00:03;;;;;;;37.07;16.60;;;-1.50;99.90;;;;;;5200450;27;20128;-67
2022/01/12 05:13:26;;;;;;;35.47;15.57;;;-1.20;99.90;;;;;;5181807;27;20142;-67
2022/01/12 05:15:54;;;;;;;35.50;14.57;;;-1.20;99.90;;;;;;5181821;27;20154;-67
2022/01/12 05:18:21;;;;;;;33.93;15.37;;;-1.20;99.90;;;;;;5180998;27;20135;-67
2022/01/12 05:20:52;;;;;;;31.43;14.03;;;-1.20;99.90;;;;;;5181965;27;20186;-67
2022/01/12 05:23:19;;;;;;;30.67;12.63;;;-1.20;99.90;;;;;;5181074;27;20171;-67
2022/01/12 05:25:46;;;;;;;26.63;11.83;;;-1.20;99.90;;;;;;5181325;27;20147;-67
2022/01/12 05:28:14;;;;;;;25.53;11.13;;;-1.10;99.90;;;;;;5182779;27;20159;-67
2022/01/12 05:30:41;;;;;;;23.63;10.97;;;-1.10;99.90;;;;;;5181406;27;20190;-67
2022/01/12 05:33:09;;;;;;;23.90;10.60;;;-1.10;99.90;;;;;;5181050;27;20185;-67
2022/01/12 05:35:36;;;;;;;27.73;10.67;;;-1.20;99.90;;;;;;5181203;27;20152;-67
2022/01/12 05:38:05;;;;;;;23.23;10.60;;;-1.20;99.90;;;;;;5183542;27;20169;-67
2022/01/12 05:40:32;;;;;;;23.47;10.53;;;-1.20;99.90;;;;;;5183502;27;20144;-67
2022/01/12 05:43:00;;;;;;;22.73;10.90;;;-1.20;99.90;;;;;;5200547;27;20134;-67
2022/01/12 05:45:29;;;;;;;24.07;10.97;;;-1.30;99.90;;;;;;5164922;27;20155;-67
2022/01/12 05:50:29;;;;;;;24.23;11.13;;;-1.30;99.90;;;;;;5180954;27;20169;-67
2022/01/12 05:52:56;;;;;;;20.47;10.33;;;-1.30;99.90;;;;;;5181315;27;20193;-67
2022/01/12 05:55:23;;;;;;;23.77;11.10;;;-1.20;99.90;;;;;;5182015;27;20139;-67
2022/01/12 05:57:50;;;;;;;23.30;10.70;;;-1.30;99.90;;;;;;5201346;27;20154;-67
2022/01/12 06:00:19;;;;;;;20.17;10.30;;;-1.30;99.90;;;;;;5181734;27;20166;-67
2022/01/12 06:02:46;;;;;;;25.37;11.50;;;-1.30;99.90;;;;;;5183093;27;20146;-67
2022/01/12 06:05:18;;;;;;;24.00;11.03;;;-1.30;99.90;;;;;;5203506;27;20127;-67
2022/01/12 06:07:47;;;;;;;24.70;11.20;;;-1.30;99.90;;;;;;5201238;27;20151;-67
2022/01/12 06:10:15;;;;;;;26.40;11.23;;;-1.30;99.90;;;;;;5183415;27;20148;-67
2022/01/12 06:12:42;;;;;;;23.50;10.97;;;-1.30;99.90;;;;;;5181924;27;20501;-67
2022/01/12 06:15:10;;;;;;;23.20;10.90;;;-1.30;99.90;;;;;;5183054;27;20149;-67
2022/01/12 06:17:37;;;;;;;24.63;11.37;;;-1.30;99.90;;;;;;5184019;27;20513;-67
2022/01/12 06:20:06;;;;;;;22.47;10.90;;;-1.40;99.90;;;;;;5182601;27;20160;-67
2022/01/12 06:22:33;;;;;;;22.03;11.27;;;-1.40;99.90;;;;;;5181792;27;20150;-67
2022/01/12 06:25:00;;;;;;;23.77;11.03;;;-1.40;99.90;;;;;;5182691;27;20154;-67
2022/01/12 06:27:30;;;;;;;27.20;12.63;;;-1.40;99.90;;;;;;5201168;27;20160;-68
2022/01/12 06:32:31;;;;;;;26.50;11.67;;;-1.30;99.90;;;;;;5182352;27;20155;-67
2022/01/12 06:34:57;;;;;;;24.40;11.40;;;-1.30;99.90;;;;;;5200679;27;20116;-67
2022/01/12 06:37:24;;;;;;;28.13;12.43;;;-1.30;99.90;;;;;;5183191;27;20139;-67
2022/01/12 06:39:51;;;;;;;27.63;12.30;;;-1.30;99.90;;;;;;5182562;27;20198;-67
2022/01/12 06:42:18;;;;;;;25.53;11.60;;;-1.30;99.90;;;;;;5179907;27;20151;-67
2022/01/12 06:44:47;;;;;;;27.23;12.53;;;-1.30;99.90;;;;;;5200166;27;20129;-67
2022/01/12 06:47:14;;;;;;;34.47;14.57;;;-1.30;99.90;;;;;;5182601;27;20170;-67
2022/01/12 06:49:41;;;;;;;31.40;14.27;;;-1.30;99.90;;;;;;5182340;27;20159;-67
2022/01/12 06:52:09;;;;;;;41.13;16.83;;;-1.30;99.90;;;;;;5181997;27;20178;-67
2022/01/12 06:54:36;;;;;;;39.13;16.97;;;-1.20;99.90;;;;;;5201063;27;20119;-67
2022/01/12 06:57:03;;;;;;;46.70;19.33;;;-1.20;99.90;;;;;;5181549;27;20151;-67
2022/01/12 06:59:31;;;;;;;44.07;19.17;;;-1.20;99.90;;;;;;5182835;27;20197;-67
2022/01/12 07:01:57;;;;;;;48.70;20.30;;;-1.20;99.90;;;;;;5181965;27;20162;-67
2022/01/12 07:04:25;;;;;;;51.53;22.47;;;-1.20;99.90;;;;;;5181344;27;20169;-66
2022/01/12 07:06:52;;;;;;;52.53;22.77;;;-1.40;99.90;;;;;;5181618;27;20154;-67
2022/01/12 07:09:19;;;;;;;59.20;23.93;;;-1.40;99.90;;;;;;5201019;27;20114;-67
2022/01/12 07:11:47;;;;;;;59.73;23.97;;;-1.30;99.90;;;;;;5202194;27;20115;-67
2022/01/12 07:14:14;;;;;;;56.87;23.90;;;-1.30;99.90;;;;;;5201453;27;20435;-67
2022/01/12 07:16:41;;;;;;;54.47;23.80;;;-1.40;99.90;;;;;;5181518;27;20186;-67
2022/01/12 07:19:08;;;;;;;56.17;24.10;;;-1.50;99.90;;;;;;5181806;27;20155;-67
2022/01/12 07:21:40;;;;;;;55.37;23.73;;;-1.50;99.90;;;;;;5201195;27;20180;-67
2022/01/12 07:24:08;;;;;;;57.43;23.10;;;-1.40;99.90;;;;;;5181400;27;20212;-66
2022/01/12 07:26:35;;;;;;;54.57;22.63;;;-1.40;99.90;;;;;;5182165;27;20147;-66
2022/01/12 07:29:02;;;;;;;56.20;22.83;;;-1.40;99.90;;;;;;5181209;27;20206;-67
2022/01/12 07:31:31;;;;;;;51.00;21.23;;;-1.40;99.90;;;;;;5200781;27;20193;-67
2022/01/12 07:34:04;;;;;;;48.10;20.50;;;-1.40;99.90;;;;;;5181539;27;20139;-67
2022/01/12 07:36:42;;;;;;;53.47;20.97;;;-1.50;99.90;;;;;;5182384;27;20135;-67
2022/01/12 07:39:18;;;;;;;47.87;20.37;;;-1.40;99.90;;;;;;5181953;27;20143;-67
2022/01/12 07:41:45;;;;;;;52.63;20.60;;;-1.40;99.90;;;;;;5180969;27;20181;-67
2022/01/12 07:44:13;;;;;;;49.13;19.70;;;-1.30;99.90;;;;;;5182348;27;20140;-67
2022/01/12 07:46:40;;;;;;;50.53;20.90;;;-1.30;99.90;;;;;;5181801;27;20207;-67
2022/01/12 07:49:07;;;;;;;51.97;21.90;;;-1.40;99.90;;;;;;5181005;27;20502;-67
2022/01/12 07:51:36;;;;;;;48.57;19.77;;;-1.40;99.90;;;;;;5182277;27;20151;-67
2022/01/12 07:54:04;;;;;;;45.17;19.87;;;-1.40;99.90;;;;;;5182211;27;20425;-66
2022/01/12 07:56:37;;;;;;;36.47;16.63;;;-1.30;99.90;;;;;;5201330;27;20346;-67
2022/01/12 07:59:07;;;;;;;38.00;15.93;;;-1.20;99.90;;;;;;5180833;27;20379;-67
2022/01/12 08:01:34;;;;;;;34.40;15.40;;;-1.30;99.90;;;;;;5201648;27;20345;-67
2022/01/12 08:04:02;;;;;;;31.10;14.43;;;-1.40;99.90;;;;;;5200209;27;20321;-67
2022/01/12 08:06:29;;;;;;;28.03;13.27;;;-1.30;99.90;;;;;;5200263;27;20125;-66
2022/01/12 08:08:59;;;;;;;27.00;13.73;;;-1.30;99.90;;;;;;5181037;27;20158;-66
2022/01/12 08:11:29;;;;;;;29.13;13.23;;;-1.30;99.90;;;;;;5201184;27;20340;-66
2022/01/12 08:13:56;;;;;;;27.13;12.83;;;-1.20;99.90;;;;;;5200871;27;20147;-66
2022/01/12 08:16:26;;;;;;;26.20;12.23;;;-1.20;99.90;;;;;;5181282;27;20186;-66
2022/01/12 08:18:55;;;;;;;26.90;12.57;;;-1.20;99.90;;;;;;5199924;27;20142;-67
2022/01/12 08:21:24;;;;;;;27.93;12.17;;;-1.10;99.90;;;;;;5180156;27;20151;-67
2022/01/12 08:23:51;;;;;;;26.90;12.27;;;-1.10;99.90;;;;;;5181857;27;20372;-67
2022/01/12 08:26:32;;;;;;;24.67;11.23;;;-1.20;99.90;;;;;;5200081;27;20127;-67
2022/01/12 08:29:04;;;;;;;22.87;12.33;;;-1.10;99.90;;;;;;5180872;27;20153;-66
2022/01/12 08:31:36;;;;;;;26.20;12.37;;;-1.20;99.90;;;;;;5180803;27;20146;-67
2022/01/12 08:34:04;;;;;;;28.97;12.50;;;-1.20;99.90;;;;;;5200156;27;20367;-67
2022/01/12 08:36:34;;;;;;;27.13;11.37;;;-1.30;99.90;;;;;;5182556;27;20176;-67
2022/01/12 08:39:02;;;;;;;26.67;11.43;;;-1.20;99.90;;;;;;5181423;27;20199;-67
2022/01/12 08:41:30;;;;;;;27.20;11.53;;;-1.30;99.90;;;;;;5180668;27;20194;-67
2022/01/12 08:43:57;;;;;;;25.37;11.87;;;-1.40;99.90;;;;;;5182344;27;20171;-67
2022/01/12 08:46:25;;;;;;;27.97;12.57;;;-1.40;99.90;;;;;;5200134;27;20175;-67
2022/01/12 08:48:58;;;;;;;26.43;12.23;;;-1.40;99.90;;;;;;5180798;27;20418;-67
2022/01/12 08:51:25;;;;;;;26.00;12.40;;;-1.30;99.90;;;;;;5199894;27;20177;-67
2022/01/12 08:53:53;;;;;;;25.23;10.87;;;-1.20;99.90;;;;;;5199410;27;20154;-67
2022/01/12 08:56:32;;;;;;;20.50;10.07;;;-1.00;99.90;;;;;;5200087;27;20119;-67
2022/01/12 08:58:59;;;;;;;20.43;9.77;;;-1.10;99.90;;;;;;5180528;27;20455;-68
2022/01/12 09:01:27;;;;;;;24.67;10.07;;;-1.10;99.90;;;;;;5200172;27;20127;-68
2022/01/12 09:03:54;;;;;;;23.33;10.33;;;-1.10;99.90;;;;;;5180754;27;20653;-68
2022/01/12 09:06:21;;;;;;;23.03;10.40;;;-1.10;99.90;;;;;;5181197;27;20150;-67
2022/01/12 09:08:49;;;;;;;22.53;10.33;;;-1.00;99.90;;;;;;5180567;27;20140;-67
2022/01/12 09:11:18;;;;;;;24.27;10.37;;;-0.80;99.90;;;;;;5182448;27;20148;-67
2022/01/12 09:13:48;;;;;;;22.50;10.53;;;-0.80;99.90;;;;;;5200570;27;20408;-67
2022/01/12 09:16:20;;;;;;;21.97;9.97;;;-0.90;99.90;;;;;;5181013;27;20178;-67
2022/01/12 09:18:54;;;;;;;23.87;10.43;;;-0.90;99.90;;;;;;5200250;27;20466;-67
2022/01/12 09:21:22;;;;;;;23.07;10.57;;;-0.70;99.90;;;;;;5180758;27;20426;-67
2022/01/12 09:24:08;;;;;;;22.70;10.73;;;-0.60;99.90;;;;;;5180415;27;20144;-67
2022/01/12 09:26:35;;;;;;;23.20;10.20;;;-0.30;99.90;;;;;;5199765;27;20103;-67
2022/01/12 09:29:03;;;;;;;20.67;9.87;;;-0.10;99.90;;;;;;5181162;27;20186;-67
2022/01/12 09:31:33;;;;;;;21.30;9.43;;;-0.10;99.90;;;;;;5180210;27;20364;-67
2022/01/12 09:34:10;;;;;;;20.37;9.33;;;-0.10;99.90;;;;;;5180019;27;20172;-67
2022/01/12 09:36:45;;;;;;;18.83;9.30;;;-0.30;99.90;;;;;;5198821;27;20173;-67
2022/01/12 09:39:13;;;;;;;16.53;8.80;;;-0.30;99.90;;;;;;5180272;27;20525;-67
2022/01/12 09:41:52;;;;;;;19.00;8.90;;;-0.30;99.90;;;;;;5199526;27;20177;-67
2022/01/12 09:44:48;;;;;;;22.63;9.37;;;-0.30;99.90;;;;;;5198425;27;20184;-66
2022/01/12 09:47:32;;;;;;;17.77;8.30;;;-0.40;99.90;;;;;;5199832;27;20433;-67
2022/01/12 09:50:05;;;;;;;18.57;8.53;;;-0.40;99.90;;;;;;5180090;27;20508;-67
2022/01/12 09:52:45;;;;;;;20.33;8.50;;;-0.50;99.90;;;;;;5180550;27;20501;-67
2022/01/12 09:55:51;;;;;;;;;;;;;;;;;;;;;
2022/01/12 09:58:25;;;;;;;21.30;9.53;;;-0.40;99.90;;;;;;5181278;27;20147;-67
2022/01/12 10:01:15;;;;;;;19.10;9.13;;;-0.40;99.90;;;;;;5199648;27;20433;-67
2022/01/12 10:03:48;;;;;;;19.30;9.27;;;-0.50;99.90;;;;;;5180742;27;20140;-67
2022/01/12 10:06:19;;;;;;;20.73;9.27;;;-0.40;99.90;;;;;;5199904;27;20158;-67
2022/01/12 10:08:46;;;;;;;18.27;8.57;;;-0.40;99.90;;;;;;5180526;27;20331;-66
2022/01/12 10:11:17;;;;;;;18.83;8.80;;;-0.40;99.90;;;;;;5180978;27;20139;-69
2022/01/12 10:13:54;;;;;;;21.80;9.50;;;-0.50;99.90;;;;;;5180099;27;20143;-67
2022/01/12 10:16:26;;;;;;;16.77;8.40;;;-0.40;99.90;;;;;;5199721;27;20122;-67
2022/01/12 10:19:00;;;;;;;17.23;7.67;;;-0.30;99.90;;;;;;5199482;27;20217;-67
2022/01/12 10:21:36;;;;;;;14.37;7.03;;;-0.30;99.90;;;;;;5180252;27;20163;-67
2022/01/12 10:24:18;;;;;;;13.27;7.33;;;-0.30;99.90;;;;;;5180189;27;20487;-67
2022/01/12 10:26:46;;;;;;;13.40;6.63;;;-0.40;99.90;;;;;;5179772;27;20186;-67
2022/01/12 10:29:17;;;;;;;18.37;7.37;;;-0.50;99.90;;;;;;5180082;27;20152;-67
2022/01/12 10:32:37;;;;;;;14.80;7.70;;;-0.40;99.90;;;;;;5180670;27;20178;-67
2022/01/12 10:36:13;;;;;;;16.50;7.17;;;-0.40;99.90;;;;;;5181411;27;20147;-67
2022/01/12 10:39:14;;;;;;;17.73;7.73;;;-0.40;99.90;;;;;;5179945;27;20186;-67
2022/01/12 10:43:17;;;;;;;17.70;7.50;;;-0.40;99.90;;;;;;5073338;28;20210;-68
2022/01/12 10:46:10;;;;;;;17.60;7.67;;;-0.40;99.90;;;;;;5114478;28;20616;-68
2022/01/12 10:49:30;;;;;;;16.17;7.77;;;-0.40;99.90;;;;;;5114932;28;20176;-67
2022/01/12 10:57:18;;;;;;;18.07;8.53;;;-0.40;99.90;;;;;;4956132;28;20203;-67
2022/01/12 11:04:39;;;;;;;14.63;6.77;;;-0.10;99.90;;;;;;4883032;29;20159;-67
2022/01/12 11:08:23;;;;;;;14.87;6.63;;;-0.20;99.90;;;;;;4950028;29;20168;-67
2022/01/12 11:11:00;;;;;;;17.07;6.27;;;-0.50;99.90;;;;;;4940158;28;20154;-67
2022/01/12 11:13:40;;;;;;;12.53;5.90;;;-0.50;99.90;;;;;;4956507;29;20175;-67
2022/01/12 11:17:42;;;;;;;16.03;6.43;;;-0.50;99.90;;;;;;4964666;28;20192;-67
2022/01/12 11:20:30;;;;;;;12.63;6.00;;;-0.40;99.90;;;;;;4966530;28;20165;-68
2022/01/12 11:24:02;;;;;;;13.70;5.93;;;-0.20;99.90;;;;;;5015594;28;20214;-68
2022/01/12 11:27:53;;;;;;;;;;;;;;;;;;;;;
2022/01/12 11:31:15;;;;;;;12.97;6.10;;;-0.10;99.90;;;;;;4918136;29;20144;-67
2022/01/12 11:34:18;;;;;;;11.57;5.43;;;0.20;99.90;;;;;;4953860;29;20147;-67
2022/01/12 11:37:20;;;;;;;14.40;6.60;;;0.30;99.90;;;;;;4921594;28;20156;-68
2022/01/12 11:40:14;;;;;;;13.67;6.90;;;0.30;99.90;;;;;;5014759;28;20154;-68
2022/01/12 11:44:00;;;;;;;12.70;6.60;;;0.40;99.90;;;;;;5014551;28;20188;-68
2022/01/12 11:46:50;;;;;;;15.10;6.43;;;0.50;99.90;;;;;;4950491;28;20480;-68
2022/01/12 11:49:44;;;;;;;14.80;7.23;;;0.70;99.90;;;;;;5010615;28;20469;-68
2022/01/12 11:52:29;;;;;;;15.13;6.20;;;0.80;99.90;;;;;;5014663;28;20167;-67
2022/01/12 11:55:16;;;;;;;9.73;5.00;;;0.60;99.90;;;;;;5015397;28;20192;-67
2022/01/12 11:58:16;;;;;;;14.07;6.70;;;0.50;99.90;;;;;;5013245;28;20198;-67
2022/01/12 12:01:44;;;;;;;15.20;6.63;;;0.40;99.90;;;;;;5015375;28;20145;-67
2022/01/12 12:04:27;;;;;;;12.03;6.03;;;0.40;99.90;;;;;;5114632;28;20198;-67
2022/01/12 12:07:19;;;;;;;14.43;6.53;;;0.30;99.90;;;;;;5141018;27;20140;-67
2022/01/12 12:10:10;;;;;;;12.80;6.70;;;0.30;99.90;;;;;;5179094;27;20182;-68
2022/01/12 12:12:55;;;;;;;13.73;6.17;;;0.40;99.90;;;;;;5200904;27;20359;-68
2022/01/12 12:16:09;;;;;;;13.83;6.93;;;0.60;99.90;;;;;;5180776;27;20151;-68
2022/01/12 12:18:36;;;;;;;14.80;7.10;;;0.70;99.90;;;;;;5174765;27;20535;-68
2022/01/12 12:21:23;;;;;;;14.93;7.77;;;0.50;99.90;;;;;;5173609;27;20158;-68
2022/01/12 12:23:52;;;;;;;15.40;7.90;;;0.40;99.90;;;;;;5181611;27;20170;-68
2022/01/12 12:26:22;;;;;;;18.30;8.43;;;0.40;99.90;;;;;;5180528;27;20147;-68
2022/01/12 12:28:56;;;;;;;17.70;8.27;;;0.40;99.90;;;;;;5200796;27;20110;-68
2022/01/12 12:32:13;;;;;;;16.33;8.27;;;0.30;99.90;;;;;;5180786;27;20418;-67
2022/01/12 12:35:00;;;;;;;18.10;8.70;;;0.20;99.90;;;;;;5180442;27;20166;-67
2022/01/12 12:37:41;;;;;;;18.30;8.43;;;-0.20;99.90;;;;;;5181228;27;20198;-68
2022/01/12 12:40:19;;;;;;;18.53;8.97;;;-0.20;99.90;;;;;;5180505;27;20151;-67
2022/01/12 12:43:25;;;;;;;19.47;9.77;;;-0.20;99.90;;;;;;5199489;27;20457;-67
2022/01/12 12:46:02;;;;;;;18.67;8.80;;;-0.20;99.90;;;;;;5180211;27;20146;-67
2022/01/12 12:48:32;;;;;;;18.97;9.10;;;-0.20;99.90;;;;;;5181524;27;20151;-67
2022/01/12 12:51:08;;;;;;;22.13;9.53;;;-0.30;99.90;;;;;;5181002;27;20146;-67
2022/01/12 12:54:03;;;;;;;19.50;9.30;;;-0.40;99.90;;;;;;5181247;27;20478;-67
2022/01/12 12:57:24;;;;;;;18.87;9.30;;;-0.40;99.90;;;;;;5123016;28;20144;-68
2022/01/12 13:00:05;;;;;;;19.67;9.50;;;-0.30;99.90;;;;;;5176265;27;20175;-67
2022/01/12 13:02:56;;;;;;;18.83;9.40;;;-0.30;99.90;;;;;;5199579;27;20125;-67
2022/01/12 13:05:35;;;;;;;23.67;9.40;;;-0.20;99.90;;;;;;5181855;27;20183;-67
2022/01/12 13:08:10;;;;;;;22.53;10.60;;;-0.30;99.90;;;;;;5180059;27;20558;-67
2022/01/12 13:10:51;;;;;;;21.70;9.63;;;-0.30;99.90;;;;;;5180747;27;20181;-67
2022/01/12 13:13:19;;;;;;;21.90;9.90;;;-0.30;99.90;;;;;;5181583;27;20159;-68
2022/01/12 13:15:47;;;;;;;17.63;9.57;;;-0.30;99.90;;;;;;5181751;27;20155;-67
2022/01/12 13:18:25;;;;;;;19.80;9.57;;;-0.10;99.90;;;;;;5180888;27;20187;-67
2022/01/12 13:21:12;;;;;;;25.10;11.60;;;-0.10;99.90;;;;;;5180418;27;20135;-67
2022/01/12 13:24:03;;;;;;;26.60;12.43;;;-0.20;99.90;;;;;;5182446;27;20154;-67
2022/01/12 13:26:32;;;;;;;27.90;12.73;;;-0.10;99.90;;;;;;5200047;27;20370;-67
2022/01/12 13:29:06;;;;;;;27.43;12.53;;;-0.20;99.90;;;;;;5180320;27;20183;-67
2022/01/12 13:31:33;;;;;;;27.10;12.33;;;-0.30;99.90;;;;;;5180877;27;20195;-67
2022/01/12 13:34:03;;;;;;;25.97;12.57;;;-0.30;99.90;;;;;;5181122;27;20463;-67
2022/01/12 13:36:32;;;;;;;30.27;12.50;;;-0.40;99.90;;;;;;5180381;27;20150;-67
2022/01/12 13:40:07;;;;;;;29.93;13.13;;;-0.50;99.90;;;;;;5199230;27;20517;-67
2022/01/12 13:43:00;;;;;;;28.37;12.87;;;-0.40;99.90;;;;;;5035636;28;20402;-67
2022/01/12 13:45:38;;;;;;;27.47;13.50;;;-0.40;99.90;;;;;;5054423;28;20149;-67
2022/01/12 13:48:42;;;;;;;29.13;13.27;;;-0.40;99.90;;;;;;5052909;28;20174;-67
2022/01/12 13:51:12;;;;;;;30.50;13.13;;;-0.40;99.90;;;;;;5052809;28;20200;-67
2022/01/12 13:54:04;;;;;;;29.13;13.50;;;-0.50;99.90;;;;;;5036471;28;20233;-67
2022/01/12 13:56:42;;;;;;;30.47;13.40;;;-0.50;99.90;;;;;;5053249;28;20145;-67
2022/01/12 13:59:15;;;;;;;33.70;13.90;;;-0.60;99.90;;;;;;5036151;28;20153;-67
2022/01/12 14:01:43;;;;;;;33.43;13.90;;;-0.70;99.90;;;;;;5053259;28;20157;-67
2022/01/12 14:04:42;;;;;;;28.47;13.40;;;-0.70;99.90;;;;;;5036352;28;20157;-65
2022/01/12 14:07:29;;;;;;;30.30;13.17;;;-0.70;99.90;;;;;;5053776;28;20497;-65
2022/01/12 14:09:59;;;;;;;32.00;13.40;;;-0.80;99.90;;;;;;5052263;28;20160;-65
2022/01/12 14:12:30;;;;;;;32.33;13.70;;;-0.90;99.90;;;;;;5036983;28;20141;-65
2022/01/12 14:15:07;;;;;;;30.57;13.73;;;-0.90;99.90;;;;;;5053704;28;20118;-65
2022/01/12 14:17:45;;;;;;;35.23;14.30;;;-0.80;99.90;;;;;;5092193;28;20156;-65
2022/01/12 14:20:22;;;;;;;31.27;14.60;;;-0.80;99.90;;;;;;5180626;27;20147;-66
2022/01/12 14:22:56;;;;;;;35.77;15.53;;;-0.80;99.90;;;;;;5202177;27;20465;-65
2022/01/12 14:25:48;;;;;;;33.63;15.10;;;-0.90;99.90;;;;;;5181412;27;20497;-65
2022/01/12 14:28:16;;;;;;;34.67;15.13;;;-1.00;99.90;;;;;;5181646;27;20187;-66
2022/01/12 14:30:45;;;;;;;37.23;14.80;;;-1.00;99.90;;;;;;5200458;27;20120;-65
2022/01/12 14:33:13;;;;;;;35.20;15.03;;;-1.10;99.90;;;;;;5181597;27;20143;-65
2022/01/12 14:35:41;;;;;;;32.70;14.60;;;-1.10;99.90;;;;;;5181817;27;20146;-65
2022/01/12 14:38:09;;;;;;;35.13;14.20;;;-1.20;99.90;;;;;;5201920;27;20144;-65
2022/01/12 14:40:36;;;;;;;33.67;14.33;;;-1.20;99.90;;;;;;5202143;27;20146;-65
2022/01/12 14:43:09;;;;;;;33.37;14.27;;;-1.30;99.90;;;;;;5181414;27;20170;-65
2022/01/12 14:45:39;;;;;;;27.90;13.70;;;-1.30;99.90;;;;;;5181633;27;20194;-66
2022/01/12 14:48:12;;;;;;;31.97;14.33;;;-1.30;99.90;;;;;;5181297;27;20202;-65
2022/01/12 14:50:40;;;;;;;35.17;14.97;;;-1.30;99.90;;;;;;5202835;27;20128;-65